Time;durP1;ratioP1;P1;durP2;ratioP2;P2;SDS_P1;SDS_P2;PMS_P1;PMS_P2;Temp;Humidity;BMP_temperature;BMP_pressure;BME280_temperature;BME280_humidity;BME280_pressure;Samples;Min_cycle;Max_cycle;Signal;HPM_P1;HPM_P2
2023/12/02 00:00:01;;;;;;;47.97;15.20;;;;;;;;;;5023605;28;20083;-43
2023/12/02 00:02:29;;;;;;;44.10;14.15;;;;;;;;;;5029771;28;20585;-43
2023/12/02 00:04:56;;;;;;;55.07;14.63;;;;;;;;;;5019639;28;20041;-43
2023/12/02 00:07:25;;;;;;;43.92;15.20;;;;;;;;;;5026053;28;20039;-45
2023/12/02 00:09:53;;;;;;;43.08;12.90;;;;;;;;;;5029588;28;20033;-43
2023/12/02 00:12:21;;;;;;;47.60;13.48;;;;;;;;;;5027151;28;20626;-44
2023/12/02 00:14:49;;;;;;;43.92;13.27;;;;;;;;;;5026861;28;20430;-43
2023/12/02 00:17:18;;;;;;;45.67;13.33;;;;;;;;;;5028094;28;20029;-43
2023/12/02 00:19:45;;;;;;;44.85;13.30;;;;;;;;;;5026855;28;20045;-43
2023/12/02 00:22:14;;;;;;;47.25;13.48;;;;;;;;;;5019877;28;20064;-43
2023/12/02 00:24:42;;;;;;;47.38;13.63;;;;;;;;;;5031234;28;20095;-44
2023/12/02 00:27:10;;;;;;;38.58;12.85;;;;;;;;;;5023389;28;20037;-43
2023/12/02 00:29:38;;;;;;;40.93;12.40;;;;;;;;;;5034564;28;20585;-44
2023/12/02 00:32:06;;;;;;;35.65;11.48;;;;;;;;;;5020162;28;20091;-43
2023/12/02 00:34:36;;;;;;;38.60;11.40;;;;;;;;;;5026261;28;20052;-45
2023/12/02 00:37:04;;;;;;;39.65;11.68;;;;;;;;;;5028550;28;20047;-43
2023/12/02 00:39:31;;;;;;;39.78;10.90;;;;;;;;;;5025386;28;20033;-43
2023/12/02 00:41:59;;;;;;;43.53;11.33;;;;;;;;;;5026130;28;20078;-43
2023/12/02 00:44:27;;;;;;;40.25;11.48;;;;;;;;;;5021745;28;20044;-43
2023/12/02 00:46:55;;;;;;;40.72;11.13;;;;;;;;;;5028265;28;20040;-44
2023/12/02 00:49:23;;;;;;;44.78;13.05;;;;;;;;;;5027670;28;20881;-43
2023/12/02 00:51:52;;;;;;;51.83;9.95;;;;;;;;;;5029391;28;20094;-43
2023/12/02 00:54:20;;;;;;;50.43;12.23;;;;;;;;;;5022373;28;20454;-44
2023/12/02 00:56:47;;;;;;;58.50;11.50;;;;;;;;;;5048911;28;20139;-43
2023/12/02 00:59:15;;;;;;;42.38;11.75;;;;;;;;;;5020838;28;20036;-44
2023/12/02 01:01:43;;;;;;;47.50;12.20;;;;;;;;;;5026772;28;20541;-43
2023/12/02 01:04:10;;;;;;;49.45;12.40;;;;;;;;;;5021238;28;20044;-44
2023/12/02 01:06:38;;;;;;;53.33;12.27;;;;;;;;;;5027164;28;20045;-43
2023/12/02 01:09:07;;;;;;;50.83;12.07;;;;;;;;;;5027872;28;20044;-44
2023/12/02 01:11:36;;;;;;;52.83;12.27;;;;;;;;;;5024439;28;20044;-43
2023/12/02 01:14:03;;;;;;;55.00;11.85;;;;;;;;;;5027573;28;20037;-43
2023/12/02 01:16:31;;;;;;;59.22;10.23;;;;;;;;;;5018211;28;20049;-43
2023/12/02 01:18:59;;;;;;;40.37;11.37;;;;;;;;;;5022332;28;20124;-44
2023/12/02 01:21:27;;;;;;;46.50;10.43;;;;;;;;;;5025088;28;20041;-44
2023/12/02 01:23:56;;;;;;;55.05;11.55;;;;;;;;;;5034933;28;20060;-43
2023/12/02 01:26:26;;;;;;;45.33;11.48;;;;;;;;;;5018557;28;20517;-44
2023/12/02 01:28:54;;;;;;;48.28;9.95;;;;;;;;;;5023401;28;20056;-44
2023/12/02 01:31:21;;;;;;;42.50;10.30;;;;;;;;;;5021844;28;20052;-44
2023/12/02 01:33:49;;;;;;;46.08;10.27;;;;;;;;;;5025716;28;20208;-44
2023/12/02 01:36:17;;;;;;;48.50;9.07;;;;;;;;;;5023512;28;20072;-44
2023/12/02 01:38:45;;;;;;;46.63;9.52;;;;;;;;;;5028745;28;20135;-43
2023/12/02 01:41:13;;;;;;;55.80;10.27;;;;;;;;;;5021845;28;20526;-44
2023/12/02 01:43:42;;;;;;;41.97;9.43;;;;;;;;;;5027835;28;20037;-44
2023/12/02 01:46:10;;;;;;;54.80;7.90;;;;;;;;;;5022875;28;20040;-43
2023/12/02 01:48:37;;;;;;;46.13;8.65;;;;;;;;;;5029706;28;20038;-43
2023/12/02 01:51:06;;;;;;;51.75;8.15;;;;;;;;;;5019481;28;20068;-44
2023/12/02 01:53:33;;;;;;;51.55;9.10;;;;;;;;;;5028033;28;20057;-44
2023/12/02 01:56:01;;;;;;;47.83;7.87;;;;;;;;;;5019117;28;20033;-43
2023/12/02 01:58:30;;;;;;;48.72;8.50;;;;;;;;;;5020058;28;20364;-43
2023/12/02 02:00:59;;;;;;;45.97;8.18;;;;;;;;;;5023963;28;20103;-43
2023/12/02 02:03:26;;;;;;;38.22;8.73;;;;;;;;;;5026739;28;20056;-44
2023/12/02 02:05:54;;;;;;;39.33;8.02;;;;;;;;;;5023269;28;20138;-44
2023/12/02 02:08:22;;;;;;;44.00;8.23;;;;;;;;;;5022371;28;20049;-43
2023/12/02 02:10:55;;;;;;;37.83;9.23;;;;;;;;;;5022834;28;20040;-43
2023/12/02 02:13:22;;;;;;;43.75;8.25;;;;;;;;;;5023081;28;20747;-43
2023/12/02 02:15:50;;;;;;;46.42;7.40;;;;;;;;;;5021816;28;20045;-44
2023/12/02 02:18:19;;;;;;;33.88;7.90;;;;;;;;;;5017982;28;20041;-43
2023/12/02 02:20:49;;;;;;;39.20;7.17;;;;;;;;;;5025793;28;20056;-43
2023/12/02 02:23:20;;;;;;;35.85;7.80;;;;;;;;;;5031286;28;20040;-43
2023/12/02 02:25:49;;;;;;;49.40;8.15;;;;;;;;;;5018300;28;20048;-43
2023/12/02 02:28:19;;;;;;;53.60;8.25;;;;;;;;;;5021587;28;20049;-44
2023/12/02 02:30:47;;;;;;;36.53;7.55;;;;;;;;;;5022650;28;20055;-44
2023/12/02 02:33:16;;;;;;;53.43;7.27;;;;;;;;;;5023645;28;20046;-44
2023/12/02 02:35:44;;;;;;;53.70;7.50;;;;;;;;;;5027394;28;20138;-45
2023/12/02 02:38:12;;;;;;;50.10;7.75;;;;;;;;;;5019650;28;20048;-43
2023/12/02 02:40:41;;;;;;;34.97;6.97;;;;;;;;;;5031150;28;21060;-43
2023/12/02 02:43:09;;;;;;;38.22;7.43;;;;;;;;;;5025762;28;20033;-43
2023/12/02 02:45:37;;;;;;;56.03;7.73;;;;;;;;;;5033126;28;20048;-43
2023/12/02 02:48:05;;;;;;;38.92;7.38;;;;;;;;;;5019340;28;20049;-44
2023/12/02 02:50:33;;;;;;;43.03;7.75;;;;;;;;;;5034965;28;20091;-43
2023/12/02 02:53:01;;;;;;;63.65;7.57;;;;;;;;;;5035469;28;20526;-43
2023/12/02 02:55:29;;;;;;;54.97;8.43;;;;;;;;;;5024813;28;20025;-44
2023/12/02 02:57:58;;;;;;;48.60;8.63;;;;;;;;;;5038595;28;20533;-44
2023/12/02 03:00:25;;;;;;;49.65;8.25;;;;;;;;;;5020842;28;20037;-43
2023/12/02 03:02:53;;;;;;;33.90;7.00;;;;;;;;;;5032112;28;20132;-43
2023/12/02 03:05:21;;;;;;;45.30;7.22;;;;;;;;;;5019517;28;20045;-43
2023/12/02 03:08:06;;;;;;;31.92;6.65;;;;;;;;;;5043540;28;20545;-43
2023/12/02 03:10:35;;;;;;;45.03;7.20;;;;;;;;;;5019769;28;20500;-43
2023/12/02 03:13:04;;;;;;;45.47;7.40;;;;;;;;;;5033656;28;20128;-45
2023/12/02 03:15:32;;;;;;;67.30;7.45;;;;;;;;;;5053240;28;20044;-43
2023/12/02 03:18:00;;;;;;;54.95;7.65;;;;;;;;;;5035377;28;20045;-43
2023/12/02 03:20:27;;;;;;;44.13;7.65;;;;;;;;;;5034891;28;20064;-44
2023/12/02 03:22:55;;;;;;;48.70;7.37;;;;;;;;;;5034860;28;20060;-43
2023/12/02 03:25:25;;;;;;;50.90;7.43;;;;;;;;;;5030882;28;20666;-43
2023/12/02 03:27:57;;;;;;;59.60;8.40;;;;;;;;;;5050233;28;20041;-44
2023/12/02 03:30:27;;;;;;;54.55;8.10;;;;;;;;;;5025897;28;20033;-43
2023/12/02 03:32:55;;;;;;;52.50;8.02;;;;;;;;;;5037296;28;20489;-44
2023/12/02 03:35:23;;;;;;;40.67;6.20;;;;;;;;;;5030041;28;20044;-43
2023/12/02 03:37:51;;;;;;;38.92;7.85;;;;;;;;;;5030827;28;20033;-44
2023/12/02 03:40:18;;;;;;;56.50;8.55;;;;;;;;;;5025797;28;20049;-44
2023/12/02 03:42:46;;;;;;;35.95;6.95;;;;;;;;;;5035128;28;20818;-44
2023/12/02 03:45:14;;;;;;;38.53;7.90;;;;;;;;;;5029159;28;20049;-44
2023/12/02 03:47:43;;;;;;;39.93;6.97;;;;;;;;;;5035865;28;20491;-44
2023/12/02 03:50:11;;;;;;;44.28;7.45;;;;;;;;;;5027097;28;20231;-43
2023/12/02 03:52:42;;;;;;;47.17;7.45;;;;;;;;;;5038208;28;20132;-43
2023/12/02 03:55:10;;;;;;;34.50;7.90;;;;;;;;;;5019441;28;20037;-48
2023/12/02 03:57:37;;;;;;;45.30;7.53;;;;;;;;;;5034903;28;20862;-43
2023/12/02 04:00:11;;;;;;;40.30;7.53;;;;;;;;;;5029041;28;20048;-43
2023/12/02 04:02:39;;;;;;;30.25;6.53;;;;;;;;;;5028513;28;20045;-43
2023/12/02 04:05:09;;;;;;;40.42;7.38;;;;;;;;;;5035475;28;20049;-44
2023/12/02 04:07:38;;;;;;;35.25;7.25;;;;;;;;;;5028723;28;20052;-43
2023/12/02 04:10:07;;;;;;;44.13;6.45;;;;;;;;;;5036972;28;20029;-43
2023/12/02 04:12:35;;;;;;;41.27;7.60;;;;;;;;;;5025147;28;20160;-44
2023/12/02 04:15:04;;;;;;;37.75;7.68;;;;;;;;;;5030181;28;20557;-43
2023/12/02 04:17:33;;;;;;;31.35;7.07;;;;;;;;;;5024810;28;20940;-43
2023/12/02 04:20:01;;;;;;;37.10;7.93;;;;;;;;;;5030722;28;20080;-43
2023/12/02 04:22:30;;;;;;;38.75;8.13;;;;;;;;;;5022524;28;20044;-43
2023/12/02 04:24:58;;;;;;;41.93;8.60;;;;;;;;;;5037489;28;20037;-43
2023/12/02 04:27:26;;;;;;;46.00;8.38;;;;;;;;;;5017034;28;20548;-44
2023/12/02 04:29:53;;;;;;;43.03;8.63;;;;;;;;;;5037684;28;20120;-44
2023/12/02 04:32:21;;;;;;;50.38;8.15;;;;;;;;;;5017106;28;20037;-43
2023/12/02 04:34:49;;;;;;;45.30;8.68;;;;;;;;;;5035461;28;20055;-43
2023/12/02 04:37:17;;;;;;;45.33;7.80;;;;;;;;;;5034272;28;20048;-44
2023/12/02 04:39:46;;;;;;;45.22;8.18;;;;;;;;;;5028738;28;20060;-43
2023/12/02 04:42:14;;;;;;;56.67;8.93;;;;;;;;;;5033488;28;20060;-44
2023/12/02 04:44:42;;;;;;;46.53;8.65;;;;;;;;;;5029072;28;20072;-43
2023/12/02 04:47:10;;;;;;;41.20;7.97;;;;;;;;;;5030828;28;20061;-43
2023/12/02 04:49:38;;;;;;;40.33;9.77;;;;;;;;;;5028461;28;20426;-43
2023/12/02 04:52:06;;;;;;;48.30;9.07;;;;;;;;;;5020198;28;20053;-43
2023/12/02 04:54:33;;;;;;;43.85;7.95;;;;;;;;;;5030422;28;20037;-43
2023/12/02 04:57:03;;;;;;;37.78;7.80;;;;;;;;;;5031863;28;20069;-44
2023/12/02 04:59:31;;;;;;;41.35;8.63;;;;;;;;;;5052054;28;20041;-43
2023/12/02 05:01:59;;;;;;;35.60;7.50;;;;;;;;;;5032555;28;20045;-43
2023/12/02 05:04:27;;;;;;;40.40;9.18;;;;;;;;;;5029369;28;20446;-50
2023/12/02 05:06:54;;;;;;;38.67;7.85;;;;;;;;;;5035425;28;20057;-44
2023/12/02 05:09:22;;;;;;;35.13;7.30;;;;;;;;;;5024785;28;20069;-43
2023/12/02 05:11:51;;;;;;;35.20;8.85;;;;;;;;;;5036309;28;20118;-44
2023/12/02 05:14:21;;;;;;;32.97;7.33;;;;;;;;;;5024654;28;20570;-45
2023/12/02 05:16:49;;;;;;;42.38;8.13;;;;;;;;;;5037521;28;20041;-47
2023/12/02 05:19:16;;;;;;;36.38;8.80;;;;;;;;;;5022325;28;20488;-44
2023/12/02 05:21:44;;;;;;;29.95;8.10;;;;;;;;;;5033586;28;20715;-43
2023/12/02 05:24:12;;;;;;;35.22;8.73;;;;;;;;;;5025411;28;20048;-46
2023/12/02 05:26:40;;;;;;;37.60;8.07;;;;;;;;;;5032698;28;20051;-43
2023/12/02 05:29:07;;;;;;;38.47;8.77;;;;;;;;;;5019693;28;20064;-44
2023/12/02 05:31:37;;;;;;;36.63;8.80;;;;;;;;;;5034101;28;20426;-43
2023/12/02 05:34:05;;;;;;;31.88;7.00;;;;;;;;;;5023151;28;20048;-43
2023/12/02 05:36:33;;;;;;;27.85;7.18;;;;;;;;;;5033890;28;20040;-43
2023/12/02 05:39:01;;;;;;;34.40;7.70;;;;;;;;;;5028572;28;20136;-42
2023/12/02 05:41:29;;;;;;;31.63;7.72;;;;;;;;;;5035067;28;20697;-45
2023/12/02 05:43:57;;;;;;;25.33;6.78;;;;;;;;;;5030013;28;20042;-44
2023/12/02 05:46:25;;;;;;;31.08;6.50;;;;;;;;;;5027984;28;20060;-43
2023/12/02 05:48:54;;;;;;;29.50;7.18;;;;;;;;;;5045063;28;20029;-43
2023/12/02 05:51:22;;;;;;;29.93;6.93;;;;;;;;;;5028758;28;20052;-44
2023/12/02 05:53:51;;;;;;;35.42;6.63;;;;;;;;;;5024740;28;20139;-43
2023/12/02 05:56:18;;;;;;;28.63;7.50;;;;;;;;;;5023461;28;20102;-44
2023/12/02 05:58:46;;;;;;;31.55;7.32;;;;;;;;;;5027376;28;20041;-43
2023/12/02 06:01:19;;;;;;;32.67;7.65;;;;;;;;;;5026505;28;20059;-44
2023/12/02 06:03:47;;;;;;;31.43;7.20;;;;;;;;;;5029925;28;20052;-44
2023/12/02 06:06:16;;;;;;;38.22;8.25;;;;;;;;;;5016907;28;20517;-43
2023/12/02 06:08:44;;;;;;;31.30;7.10;;;;;;;;;;5024480;28;20048;-43
2023/12/02 06:11:12;;;;;;;41.72;7.88;;;;;;;;;;5019898;28;20103;-43
2023/12/02 06:13:39;;;;;;;33.22;7.60;;;;;;;;;;5041330;28;20045;-43
2023/12/02 06:16:07;;;;;;;40.40;8.83;;;;;;;;;;5023614;28;20040;-43
2023/12/02 06:18:35;;;;;;;40.83;8.77;;;;;;;;;;5023329;28;20120;-43
2023/12/02 06:21:03;;;;;;;44.58;7.82;;;;;;;;;;5023126;28;20127;-44
2023/12/02 06:23:32;;;;;;;45.67;9.80;;;;;;;;;;5022969;28;20123;-44
2023/12/02 06:26:00;;;;;;;36.53;7.88;;;;;;;;;;5022163;28;20100;-44
2023/12/02 06:28:28;;;;;;;38.83;9.23;;;;;;;;;;5026849;28;20055;-43
2023/12/02 06:30:57;;;;;;;41.35;9.32;;;;;;;;;;5016249;28;20523;-44
2023/12/02 06:33:25;;;;;;;44.97;8.63;;;;;;;;;;5021567;28;20033;-43
2023/12/02 06:35:53;;;;;;;40.40;8.85;;;;;;;;;;5021766;28;20064;-45
2023/12/02 06:38:21;;;;;;;32.30;8.45;;;;;;;;;;5030922;28;20045;-43
2023/12/02 06:40:51;;;;;;;36.40;8.07;;;;;;;;;;5020403;28;20045;-45
2023/12/02 06:43:19;;;;;;;30.85;7.53;;;;;;;;;;5018909;28;20037;-43
2023/12/02 06:45:46;;;;;;;33.67;8.77;;;;;;;;;;5022776;28;20045;-44
2023/12/02 06:48:14;;;;;;;39.40;8.00;;;;;;;;;;5027862;28;20044;-43
2023/12/02 06:51:00;;;;;;;28.75;6.95;;;;;;;;;;5026050;28;20060;-46
2023/12/02 06:53:28;;;;;;;28.80;6.93;;;;;;;;;;5015445;28;20966;-43
2023/12/02 06:55:57;;;;;;;29.02;6.13;;;;;;;;;;5029311;28;20045;-45
2023/12/02 06:58:24;;;;;;;28.90;6.60;;;;;;;;;;5022746;28;20063;-44
2023/12/02 07:00:52;;;;;;;25.70;5.03;;;;;;;;;;5027212;28;20049;-44
2023/12/02 07:03:20;;;;;;;25.27;5.68;;;;;;;;;;5017560;28;20064;-43
2023/12/02 07:05:48;;;;;;;26.17;6.10;;;;;;;;;;5040623;28;20053;-43
2023/12/02 07:08:16;;;;;;;31.85;6.35;;;;;;;;;;5026717;28;20048;-43
2023/12/02 07:10:43;;;;;;;29.98;5.70;;;;;;;;;;5023693;28;20814;-43
2023/12/02 07:13:12;;;;;;;32.00;5.75;;;;;;;;;;5021308;28;20037;-45
2023/12/02 07:15:40;;;;;;;24.33;5.60;;;;;;;;;;5019785;28;20044;-44
2023/12/02 07:18:08;;;;;;;30.33;5.87;;;;;;;;;;5018138;28;20144;-44
2023/12/02 07:20:36;;;;;;;23.08;6.03;;;;;;;;;;5028515;28;20123;-43
2023/12/02 07:23:04;;;;;;;26.50;6.13;;;;;;;;;;5015799;28;20049;-43
2023/12/02 07:25:33;;;;;;;30.23;5.97;;;;;;;;;;5033017;28;20041;-46
2023/12/02 07:28:06;;;;;;;28.13;6.75;;;;;;;;;;5024231;28;20227;-45
2023/12/02 07:30:35;;;;;;;28.00;6.67;;;;;;;;;;5021510;28;20040;-43
2023/12/02 07:33:03;;;;;;;46.33;6.35;;;;;;;;;;5027704;28;20417;-43
2023/12/02 07:35:31;;;;;;;25.00;5.22;;;;;;;;;;5026269;28;20407;-43
2023/12/02 07:37:59;;;;;;;40.33;6.47;;;;;;;;;;5032299;28;20037;-43
2023/12/02 07:40:27;;;;;;;34.75;6.28;;;;;;;;;;5027779;28;20045;-43
2023/12/02 07:42:54;;;;;;;24.10;5.37;;;;;;;;;;5028449;28;20041;-43
2023/12/02 07:45:22;;;;;;;31.67;5.72;;;;;;;;;;5022188;28;20037;-43
2023/12/02 07:47:51;;;;;;;32.47;5.93;;;;;;;;;;5030470;28;20044;-43
2023/12/02 07:50:20;;;;;;;28.20;6.25;;;;;;;;;;5014652;28;20253;-43
2023/12/02 07:52:48;;;;;;;29.73;7.78;;;;;;;;;;5006233;28;20064;-44
2023/12/02 07:55:16;;;;;;;25.43;5.63;;;;;;;;;;5023711;28;20137;-44
2023/12/02 07:57:44;;;;;;;30.42;6.63;;;;;;;;;;5034937;28;20041;-46
2023/12/02 08:00:12;;;;;;;30.90;5.80;;;;;;;;;;5019719;28;20071;-45
2023/12/02 08:02:40;;;;;;;27.45;6.72;;;;;;;;;;5029237;28;20106;-43
2023/12/02 08:05:10;;;;;;;34.80;6.72;;;;;;;;;;5021996;28;20037;-43
2023/12/02 08:07:41;;;;;;;28.87;6.53;;;;;;;;;;5023219;28;20487;-44
2023/12/02 08:10:10;;;;;;;26.60;5.57;;;;;;;;;;5032368;28;20124;-43
2023/12/02 08:12:38;;;;;;;28.65;6.80;;;;;;;;;;5018374;28;20116;-44
2023/12/02 08:15:06;;;;;;;33.75;6.50;;;;;;;;;;5028611;28;20029;-43
2023/12/02 08:17:35;;;;;;;39.95;6.57;;;;;;;;;;5026345;28;20041;-45
2023/12/02 08:20:03;;;;;;;27.67;6.57;;;;;;;;;;5035453;28;20067;-43
2023/12/02 08:22:32;;;;;;;32.20;5.90;;;;;;;;;;5023651;28;20041;-44
2023/12/02 08:25:00;;;;;;;28.02;6.85;;;;;;;;;;5032075;28;20041;-43
2023/12/02 08:27:28;;;;;;;49.67;7.00;;;;;;;;;;5019816;28;20055;-43
2023/12/02 08:29:56;;;;;;;35.42;6.70;;;;;;;;;;5027322;28;20136;-42
2023/12/02 08:32:23;;;;;;;35.77;6.53;;;;;;;;;;5019185;28;20586;-43
2023/12/02 08:34:51;;;;;;;49.00;8.07;;;;;;;;;;5028766;28;20052;-44
2023/12/02 08:37:19;;;;;;;47.15;8.35;;;;;;;;;;5021974;28;20045;-43
2023/12/02 08:39:48;;;;;;;30.58;6.85;;;;;;;;;;5015163;28;20392;-43
2023/12/02 08:42:16;;;;;;;38.72;6.88;;;;;;;;;;5023504;28;20424;-45
2023/12/02 08:44:44;;;;;;;30.17;6.70;;;;;;;;;;5031115;28;20053;-44
2023/12/02 08:47:12;;;;;;;38.10;7.13;;;;;;;;;;5041610;28;20041;-43
2023/12/02 08:49:39;;;;;;;35.28;7.63;;;;;;;;;;5023070;28;20083;-43
2023/12/02 08:52:07;;;;;;;32.20;7.32;;;;;;;;;;5050727;28;20623;-43
2023/12/02 08:54:35;;;;;;;25.58;6.30;;;;;;;;;;5019768;28;20634;-44
2023/12/02 08:57:04;;;;;;;22.83;6.43;;;;;;;;;;5027806;28;20037;-43
2023/12/02 08:59:32;;;;;;;29.35;7.00;;;;;;;;;;5022926;28;20048;-43
2023/12/02 09:02:00;;;;;;;28.48;5.90;;;;;;;;;;5011785;28;20056;-44
2023/12/02 09:04:29;;;;;;;28.58;6.25;;;;;;;;;;5033202;28;20159;-42
2023/12/02 09:06:58;;;;;;;27.58;6.50;;;;;;;;;;5029649;28;20472;-43
2023/12/02 09:09:26;;;;;;;27.07;6.03;;;;;;;;;;4674452;28;9999998;-46
2023/12/02 09:11:54;;;;;;;26.30;6.77;;;;;;;;;;5027149;28;20049;-46
2023/12/02 09:14:24;;;;;;;27.35;6.00;;;;;;;;;;5012578;28;20041;-46
2023/12/02 09:16:51;;;;;;;23.33;6.32;;;;;;;;;;5030590;28;20056;-44
2023/12/02 09:19:38;;;;;;;27.70;6.47;;;;;;;;;;5021536;28;20138;-43
2023/12/02 09:22:06;;;;;;;27.55;6.00;;;;;;;;;;5027709;28;20041;-44
2023/12/02 09:24:37;;;;;;;22.77;6.47;;;;;;;;;;5019387;28;20136;-43
2023/12/02 09:27:06;;;;;;;25.20;6.53;;;;;;;;;;5027873;28;20519;-43
2023/12/02 09:29:37;;;;;;;27.23;6.72;;;;;;;;;;5017358;28;20040;-43
2023/12/02 09:32:10;;;;;;;27.15;7.55;;;;;;;;;;5024055;28;20037;-43
2023/12/02 09:34:56;;;;;;;27.45;7.35;;;;;;;;;;5018774;28;20045;-43
2023/12/02 09:37:44;;;;;;;30.37;6.73;;;;;;;;;;5016375;28;20225;-43
2023/12/02 09:40:33;;;;;;;29.00;8.23;;;;;;;;;;5014344;28;20071;-43
2023/12/02 09:43:07;;;;;;;27.85;6.88;;;;;;;;;;5034778;28;20485;-43
2023/12/02 09:45:40;;;;;;;26.85;8.20;;;;;;;;;;5019343;28;20137;-42
2023/12/02 09:48:13;;;;;;;27.73;7.13;;;;;;;;;;4673065;28;10000252;-44
2023/12/02 09:50:45;;;;;;;26.10;6.70;;;;;;;;;;5022282;28;20044;-42
2023/12/02 09:53:18;;;;;;;21.30;5.75;;;;;;;;;;5016229;28;20049;-43
2023/12/02 09:55:50;;;;;;;25.00;7.38;;;;;;;;;;5027748;28;20045;-44
2023/12/02 09:58:21;;;;;;;19.20;5.53;;;;;;;;;;5020735;28;20037;-45
2023/12/02 10:00:53;;;;;;;19.58;6.00;;;;;;;;;;5026600;28;20044;-43
2023/12/02 10:03:38;;;;;;;19.50;5.70;;;;;;;;;;5029056;28;20052;-44
2023/12/02 10:06:11;;;;;;;20.50;5.38;;;;;;;;;;5023894;28;20041;-43
2023/12/02 10:08:44;;;;;;;19.80;4.70;;;;;;;;;;5022563;28;20049;-43
2023/12/02 10:11:15;;;;;;;15.02;3.97;;;;;;;;;;5018014;28;20526;-43
2023/12/02 10:13:45;;;;;;;24.02;6.15;;;;;;;;;;5022995;28;20037;-44
2023/12/02 10:16:16;;;;;;;22.13;5.80;;;;;;;;;;5018284;28;20060;-43
2023/12/02 10:18:47;;;;;;;24.15;5.75;;;;;;;;;;5011725;28;20457;-43
2023/12/02 10:21:17;;;;;;;29.33;5.55;;;;;;;;;;5023366;28;20040;-43
2023/12/02 10:23:50;;;;;;;22.55;6.72;;;;;;;;;;5016856;28;20045;-43
2023/12/02 10:26:23;;;;;;;28.60;6.80;;;;;;;;;;5025461;28;20041;-43
2023/12/02 10:28:55;;;;;;;24.43;7.43;;;;;;;;;;5014179;28;20048;-43
2023/12/02 10:31:26;;;;;;;26.17;8.48;;;;;;;;;;5026696;28;20075;-45
2023/12/02 10:33:58;;;;;;;23.40;6.32;;;;;;;;;;5016974;28;20396;-42
2023/12/02 10:36:27;;;;;;;20.35;5.93;;;;;;;;;;5024051;28;20487;-43
2023/12/02 10:39:07;;;;;;;21.60;6.00;;;;;;;;;;5022851;28;20041;-43
2023/12/02 10:41:46;;;;;;;21.90;6.20;;;;;;;;;;5020063;28;20061;-45
2023/12/02 10:44:16;;;;;;;24.83;5.82;;;;;;;;;;5029401;28;20485;-44
2023/12/02 10:46:46;;;;;;;25.77;5.60;;;;;;;;;;5019431;28;20522;-43
2023/12/02 10:49:14;;;;;;;17.90;4.78;;;;;;;;;;5028358;28;20049;-44
2023/12/02 10:51:44;;;;;;;23.35;6.32;;;;;;;;;;5019660;28;20091;-43
2023/12/02 10:54:13;;;;;;;21.70;6.30;;;;;;;;;;5024669;28;20114;-43
2023/12/02 10:56:45;;;;;;;22.15;6.20;;;;;;;;;;5013690;28;20045;-43
2023/12/02 10:59:14;;;;;;;24.90;5.90;;;;;;;;;;5027371;28;20470;-45
2023/12/02 11:01:45;;;;;;;22.35;5.85;;;;;;;;;;5021582;28;20049;-44
2023/12/02 11:04:23;;;;;;;21.52;5.13;;;;;;;;;;5019558;28;20045;-43
2023/12/02 11:06:52;;;;;;;23.63;5.70;;;;;;;;;;5025943;28;20344;-44
2023/12/02 11:09:25;;;;;;;20.00;5.72;;;;;;;;;;5024689;28;20465;-43
2023/12/02 11:11:57;;;;;;;20.58;4.90;;;;;;;;;;5020695;28;20041;-45
2023/12/02 11:14:26;;;;;;;15.63;4.20;;;;;;;;;;5013075;28;20523;-44
2023/12/02 11:17:03;;;;;;;19.42;4.78;;;;;;;;;;5028571;28;20045;-44
2023/12/02 11:19:45;;;;;;;20.13;5.17;;;;;;;;;;5027949;28;20467;-43
2023/12/02 11:22:20;;;;;;;16.80;4.38;;;;;;;;;;5020495;28;20132;-43
2023/12/02 11:24:57;;;;;;;18.35;5.03;;;;;;;;;;5030855;28;20044;-43
2023/12/02 11:27:29;;;;;;;14.32;4.38;;;;;;;;;;5021177;28;20486;-45
2023/12/02 11:30:03;;;;;;;18.00;4.82;;;;;;;;;;5032206;28;20057;-43
2023/12/02 11:32:36;;;;;;;25.43;4.80;;;;;;;;;;5028027;28;20041;-43
2023/12/02 11:35:11;;;;;;;20.42;5.97;;;;;;;;;;5023706;28;20501;-43
2023/12/02 11:37:49;;;;;;;22.15;5.78;;;;;;;;;;5026271;28;20049;-44
2023/12/02 11:40:20;;;;;;;24.00;5.55;;;;;;;;;;5017747;28;20044;-43
2023/12/02 11:42:54;;;;;;;20.65;5.50;;;;;;;;;;5031960;28;20048;-43
2023/12/02 11:45:25;;;;;;;16.97;5.13;;;;;;;;;;5024535;28;20037;-43
2023/12/02 11:48:20;;;;;;;22.37;6.17;;;;;;;;;;4329322;28;9999967;-44
2023/12/02 11:51:20;;;;;;;26.30;5.47;;;;;;;;;;5003239;28;20506;-43
2023/12/02 11:53:56;;;;;;;24.88;5.35;;;;;;;;;;5028277;28;20122;-45
2023/12/02 11:56:25;;;;;;;21.98;5.82;;;;;;;;;;5021888;28;20041;-45
2023/12/02 11:58:54;;;;;;;26.65;4.78;;;;;;;;;;5022333;28;20072;-46
2023/12/02 12:01:30;;;;;;;24.80;5.73;;;;;;;;;;5022286;28;20051;-45
2023/12/02 12:04:08;;;;;;;24.05;5.65;;;;;;;;;;5032284;28;20037;-44
2023/12/02 12:06:48;;;;;;;18.17;5.88;;;;;;;;;;5027846;28;20044;-47
2023/12/02 12:09:19;;;;;;;24.20;5.38;;;;;;;;;;5021520;28;20041;-46
2023/12/02 12:11:48;;;;;;;21.75;5.70;;;;;;;;;;5030080;28;20049;-44
2023/12/02 12:14:16;;;;;;;34.50;6.30;;;;;;;;;;5020301;28;20574;-41
2023/12/02 12:16:46;;;;;;;24.95;5.93;;;;;;;;;;5029820;28;20217;-44
2023/12/02 12:19:14;;;;;;;27.60;6.88;;;;;;;;;;5020157;28;20040;-44
2023/12/02 12:21:44;;;;;;;28.52;8.13;;;;;;;;;;5029927;28;20045;-45
2023/12/02 12:24:12;;;;;;;26.02;7.72;;;;;;;;;;5023496;28;20037;-44
2023/12/02 12:26:40;;;;;;;24.60;7.83;;;;;;;;;;5048215;28;20037;-47
2023/12/02 12:29:08;;;;;;;31.73;7.90;;;;;;;;;;5023247;28;20517;-44
2023/12/02 12:31:36;;;;;;;35.60;8.55;;;;;;;;;;5026434;28;20499;-45
2023/12/02 12:34:10;;;;;;;31.73;7.80;;;;;;;;;;5043957;28;20552;-46
2023/12/02 12:36:40;;;;;;;31.25;9.15;;;;;;;;;;5026695;28;20045;-44
2023/12/02 12:39:10;;;;;;;25.57;8.10;;;;;;;;;;5018594;28;20596;-44
2023/12/02 12:41:38;;;;;;;27.52;7.00;;;;;;;;;;5026709;28;20578;-43
2023/12/02 12:44:07;;;;;;;26.27;7.18;;;;;;;;;;5026581;28;20104;-43
2023/12/02 12:46:35;;;;;;;21.27;6.65;;;;;;;;;;5024673;28;20056;-44
2023/12/02 12:49:04;;;;;;;27.15;7.63;;;;;;;;;;5026454;28;20111;-45
2023/12/02 12:51:33;;;;;;;25.40;7.33;;;;;;;;;;5022146;28;20048;-43
2023/12/02 12:54:02;;;;;;;23.55;7.15;;;;;;;;;;5027711;28;20501;-44
2023/12/02 12:56:42;;;;;;;26.23;7.65;;;;;;;;;;5022037;28;20041;-45
2023/12/02 12:59:10;;;;;;;21.30;6.65;;;;;;;;;;5023261;28;20041;-44
2023/12/02 13:01:43;;;;;;;21.67;6.28;;;;;;;;;;5042809;28;20099;-44
2023/12/02 13:04:15;;;;;;;20.13;5.73;;;;;;;;;;5021381;28;20497;-44
2023/12/02 13:06:44;;;;;;;15.90;5.45;;;;;;;;;;5027871;28;20043;-44
2023/12/02 13:09:12;;;;;;;21.05;6.28;;;;;;;;;;5018663;28;21032;-44
2023/12/02 13:11:52;;;;;;;20.27;6.47;;;;;;;;;;5031428;28;20064;-46
2023/12/02 13:14:23;;;;;;;21.02;5.63;;;;;;;;;;5017918;28;20044;-44
2023/12/02 13:16:51;;;;;;;19.03;5.40;;;;;;;;;;5027074;28;20048;-44
2023/12/02 13:19:18;;;;;;;23.17;6.93;;;;;;;;;;5011481;28;20044;-44
2023/12/02 13:21:46;;;;;;;21.77;5.88;;;;;;;;;;5027518;28;20037;-45
2023/12/02 13:24:16;;;;;;;20.30;5.95;;;;;;;;;;5017747;28;20037;-45
2023/12/02 13:26:45;;;;;;;17.70;5.80;;;;;;;;;;5028684;28;20041;-43
2023/12/02 13:29:17;;;;;;;21.27;5.50;;;;;;;;;;5024565;28;20483;-44
2023/12/02 13:31:45;;;;;;;18.35;5.22;;;;;;;;;;5023957;28;20040;-44
2023/12/02 13:34:18;;;;;;;18.50;5.03;;;;;;;;;;5026587;28;20044;-45
2023/12/02 13:36:49;;;;;;;20.05;4.93;;;;;;;;;;5023672;28;20746;-43
2023/12/02 13:39:22;;;;;;;18.70;5.82;;;;;;;;;;5022953;28;20049;-44
2023/12/02 13:41:50;;;;;;;18.93;5.40;;;;;;;;;;5024073;28;20060;-44
2023/12/02 13:44:21;;;;;;;21.83;4.50;;;;;;;;;;5023286;28;20094;-45
2023/12/02 13:47:03;;;;;;;18.02;5.10;;;;;;;;;;5022080;28;20087;-44
2023/12/02 13:49:35;;;;;;;21.17;4.95;;;;;;;;;;5024000;28;20036;-45
2023/12/02 13:52:05;;;;;;;19.23;4.88;;;;;;;;;;5022707;28;20506;-44
2023/12/02 13:54:42;;;;;;;14.90;4.23;;;;;;;;;;5021729;28;20565;-44
2023/12/02 13:57:17;;;;;;;16.80;4.78;;;;;;;;;;5019991;28;20724;-44
2023/12/02 13:59:46;;;;;;;15.05;4.90;;;;;;;;;;5021355;28;20051;-43
2023/12/02 14:02:23;;;;;;;14.18;4.13;;;;;;;;;;5028292;28;20037;-43
2023/12/02 14:04:58;;;;;;;19.27;5.68;;;;;;;;;;5024598;28;20041;-44
2023/12/02 14:07:28;;;;;;;19.53;5.53;;;;;;;;;;5010598;28;20037;-44
2023/12/02 14:09:56;;;;;;;17.38;5.10;;;;;;;;;;5030547;28;20056;-44
2023/12/02 14:12:35;;;;;;;17.95;5.25;;;;;;;;;;5031404;28;20090;-44
2023/12/02 14:15:24;;;;;;;25.40;5.38;;;;;;;;;;5025414;28;20125;-44
2023/12/02 14:17:59;;;;;;;20.13;5.00;;;;;;;;;;5025415;28;20037;-45
2023/12/02 14:20:35;;;;;;;15.17;4.77;;;;;;;;;;5021794;28;20037;-43
2023/12/02 14:23:21;;;;;;;20.60;4.93;;;;;;;;;;5045416;28;20041;-43
2023/12/02 14:25:58;;;;;;;15.73;5.20;;;;;;;;;;5026709;28;20156;-44
2023/12/02 14:28:32;;;;;;;22.55;5.78;;;;;;;;;;5019386;28;20535;-44
2023/12/02 14:31:06;;;;;;;18.33;4.72;;;;;;;;;;5028590;28;20045;-44
2023/12/02 14:33:45;;;;;;;21.47;4.87;;;;;;;;;;5018055;28;20041;-45
2023/12/02 14:36:21;;;;;;;18.98;5.32;;;;;;;;;;5024845;28;20049;-44
2023/12/02 14:39:06;;;;;;;19.08;5.57;;;;;;;;;;5026029;28;20495;-44
2023/12/02 14:41:42;;;;;;;19.83;5.05;;;;;;;;;;5018541;28;20051;-44
2023/12/02 14:44:20;;;;;;;20.08;4.90;;;;;;;;;;5032017;28;20130;-44